Pike Bay, Minnesota
Current Conditions -  °F | °C
As of 6:55 PM on Friday 24 Oct 2014 (Local Time) from KY49 Reporting Station
Clear Clear  
Wind Chill: 64°   Ceiling: Unl
Heat Index: 64°   Visibility: 10mi
Dew Point: 40°   Wind: 7mph
Humidity: 41%   Direction: 240°WSW
Pressure: 29.78"   Gusts: NA
Location:  47.3012°N, 94.5426°W
Report Text: KY49 242355Z AUTO 24006KT 10SM CLR 18/04 A2978 RMK AO2 T01760042 10223 20176
Loading
Personal Weather Stations






























Interactive Weather Map
Tropical Storm Tracking
New forecast layout! Learn more

10-Day Weather Forecast

Advertisements
Track Severe Weather on mobile